Time;durP1;ratioP1;P1;durP2;ratioP2;P2;SDS_P1;SDS_P2;PMS_P1;PMS_P2;Temp;Humidity;BMP_temperature;BMP_pressure;BME280_temperature;BME280_humidity;BME280_pressure;Samples;Min_cycle;Max_cycle;Signal;HPM_P1;HPM_P2
2023/08/14 00:01:14;;;;;;;;;;;;;;;;;;4979932;28;20284;-83
2023/08/14 00:03:39;;;;;;;;;;;;;;;;;;5002278;28;20341;-82
2023/08/14 00:06:05;;;;;;;;;;;;;;;;;;4990154;28;19917;-82
2023/08/14 00:08:30;;;;;;;;;;;;;;;;;;4986075;28;20040;-81
2023/08/14 00:10:55;;;;;;;;;;;;;;;;;;4980803;28;19971;-82
2023/08/14 00:13:21;;;;;;;;;;;;;;;;;;4984587;28;19921;-82
2023/08/14 00:15:49;;;;;;;;;;;;;;;;;;4995787;28;19996;-82
2023/08/14 00:18:14;;;;;;;;;;;;;;;;;;4985309;28;19971;-81
2023/08/14 00:20:40;;;;;;;;;;;;;;;;;;4981156;28;20540;-82
2023/08/14 00:23:05;;;;;;;;;;;;;;;;;;5002105;28;20253;-82
2023/08/14 00:25:30;;;;;;;;;;;;;;;;;;4983308;28;19925;-78
2023/08/14 00:27:56;;;;;;;;;;;;;;;;;;4986580;28;20022;-78
2023/08/14 00:30:21;;;;;;;;;;;;;;;;;;4976084;28;19924;-78
2023/08/14 00:32:52;;;;;;;;;;;;;;;;;;5005812;28;19924;-78
2023/08/14 00:35:17;;;;;;;;;;;;;;;;;;4976189;28;19936;-80
2023/08/14 00:37:44;;;;;;;;;;;;;;;;;;4980563;28;20201;-81
2023/08/14 00:40:10;;;;;;;;;;;;;;;;;;4983460;28;19917;-80
2023/08/14 00:42:36;;;;;;;;;;;;;;;;;;5001080;28;19944;-80
2023/08/14 00:45:01;;;;;;;;;;;;;;;;;;4995855;28;19917;-80
2023/08/14 00:47:27;;;;;;;;;;;;;;;;;;5003769;28;19920;-80
2023/08/14 00:49:52;;;;;;;;;;;;;;;;;;4979004;28;19952;-81
2023/08/14 00:52:20;;;;;;;;;;;;;;;;;;4982926;28;19913;-80
2023/08/14 00:54:45;;;;;;;;;;;;;;;;;;4978977;28;19994;-81
2023/08/14 00:57:10;;;;;;;;;;;;;;;;;;5002162;28;20389;-80
2023/08/14 00:59:36;;;;;;;;;;;;;;;;;;4985181;28;19957;-80
2023/08/14 01:02:01;;;;;;;;;;;;;;;;;;4983102;28;19924;-81
2023/08/14 01:04:26;;;;;;;;;;;;;;;;;;4986409;28;19928;-80
2023/08/14 01:06:51;;;;;;;;;;;;;;;;;;4984071;28;20384;-80
2023/08/14 01:09:19;;;;;;;;;;;;;;;;;;4986315;28;19924;-80
2023/08/14 01:11:54;;;;;;;;;;;;;;;;;;4986675;28;19918;-80
2023/08/14 01:14:23;;;;;;;;;;;;;;;;;;4984868;28;20399;-81
2023/08/14 01:16:49;;;;;;;;;;;;;;;;;;4995602;28;19924;-80
2023/08/14 01:19:25;;;;;;;;;;;;;;;;;;4988990;28;19968;-80
2023/08/14 01:21:53;;;;;;;;;;;;;;;;;;4982938;28;19913;-80
2023/08/14 01:24:24;;;;;;;;;;;;;;;;;;5004811;28;19949;-80
2023/08/14 01:26:50;;;;;;;;;;;;;;;;;;4988487;28;19917;-80
2023/08/14 01:29:15;;;;;;;;;;;;;;;;;;4998588;28;20364;-81
2023/08/14 01:31:43;;;;;;;;;;;;;;;;;;4987497;28;19982;-80
2023/08/14 01:34:09;;;;;;;;;;;;;;;;;;4986164;28;20023;-80
2023/08/14 01:36:35;;;;;;;;;;;;;;;;;;5002303;28;20011;-81
2023/08/14 01:39:07;;;;;;;;;;;;;;;;;;4998009;28;20477;-80
2023/08/14 01:41:53;;;;;;;;;;;;;;;;;;5003225;28;19917;-79
2023/08/14 01:44:19;;;;;;;;;;;;;;;;;;4994655;28;20400;-80
2023/08/14 01:46:45;;;;;;;;;;;;;;;;;;4985940;28;19963;-80
2023/08/14 01:49:13;;;;;;;;;;;;;;;;;;4998464;28;20680;-80
2023/08/14 01:51:39;;;;;;;;;;;;;;;;;;4987629;28;19924;-80
2023/08/14 01:54:04;;;;;;;;;;;;;;;;;;4984119;28;19925;-80
2023/08/14 01:56:29;;;;;;;;;;;;;;;;;;4987408;28;19924;-80
2023/08/14 01:58:55;;;;;;;;;;;;;;;;;;4983150;28;19917;-81
2023/08/14 02:01:20;;;;;;;;;;;;;;;;;;4987944;28;19947;-80
2023/08/14 02:03:45;;;;;;;;;;;;;;;;;;4979520;28;20368;-80
2023/08/14 02:06:11;;;;;;;;;;;;;;;;;;5002368;28;20043;-80
2023/08/14 02:08:36;;;;;;;;;;;;;;;;;;4987067;28;19975;-80
2023/08/14 02:11:07;;;;;;;;;;;;;;;;;;4986572;28;19932;-80
2023/08/14 02:13:35;;;;;;;;;;;;;;;;;;5001255;28;19921;-79
2023/08/14 02:16:01;;;;;;;;;;;;;;;;;;4988157;28;20427;-80
2023/08/14 02:18:27;;;;;;;;;;;;;;;;;;4988974;28;19967;-80
2023/08/14 02:20:52;;;;;;;;;;;;;;;;;;4986727;28;19917;-81
2023/08/14 02:23:17;;;;;;;;;;;;;;;;;;4988480;28;19917;-80
2023/08/14 02:25:45;;;;;;;;;;;;;;;;;;4987953;28;19952;-79
2023/08/14 02:28:11;;;;;;;;;;;;;;;;;;4994016;28;19921;-81
2023/08/14 02:30:37;;;;;;;;;;;;;;;;;;4981071;28;19948;-80
2023/08/14 02:33:02;;;;;;;;;;;;;;;;;;4985313;28;20000;-80
2023/08/14 02:35:28;;;;;;;;;;;;;;;;;;5011958;28;20830;-80
2023/08/14 02:37:53;;;;;;;;;;;;;;;;;;5003094;28;19967;-80
2023/08/14 02:40:18;;;;;;;;;;;;;;;;;;4983476;28;19917;-80
2023/08/14 02:42:43;;;;;;;;;;;;;;;;;;4989204;28;19914;-80
2023/08/14 02:45:09;;;;;;;;;;;;;;;;;;4983240;28;19913;-80
2023/08/14 02:47:34;;;;;;;;;;;;;;;;;;4987352;28;19917;-79
2023/08/14 02:49:59;;;;;;;;;;;;;;;;;;4984862;28;19917;-79
2023/08/14 02:52:25;;;;;;;;;;;;;;;;;;4985334;28;19913;-80
2023/08/14 02:54:50;;;;;;;;;;;;;;;;;;4983902;28;19957;-80
2023/08/14 02:57:15;;;;;;;;;;;;;;;;;;4973513;28;20319;-80
2023/08/14 02:59:40;;;;;;;;;;;;;;;;;;4982652;28;19926;-80
2023/08/14 03:02:06;;;;;;;;;;;;;;;;;;4995370;28;19917;-80
2023/08/14 03:04:31;;;;;;;;;;;;;;;;;;4972334;28;19922;-80
2023/08/14 03:06:56;;;;;;;;;;;;;;;;;;4986164;28;19917;-80
2023/08/14 03:09:22;;;;;;;;;;;;;;;;;;4996024;28;19924;-79
2023/08/14 03:11:47;;;;;;;;;;;;;;;;;;4986244;28;19917;-79
2023/08/14 03:14:12;;;;;;;;;;;;;;;;;;4977540;28;20369;-79
2023/08/14 03:16:37;;;;;;;;;;;;;;;;;;4977324;28;20004;-79
2023/08/14 03:19:03;;;;;;;;;;;;;;;;;;4984940;28;19953;-80
2023/08/14 03:21:28;;;;;;;;;;;;;;;;;;4973765;28;19913;-80
2023/08/14 03:23:53;;;;;;;;;;;;;;;;;;4993368;28;19920;-80
2023/08/14 03:26:18;;;;;;;;;;;;;;;;;;4986361;28;20405;-80
2023/08/14 03:28:44;;;;;;;;;;;;;;;;;;4982667;28;19913;-80
2023/08/14 03:31:09;;;;;;;;;;;;;;;;;;4980741;28;19917;-80
2023/08/14 03:33:34;;;;;;;;;;;;;;;;;;4975071;28;19925;-81
2023/08/14 03:36:00;;;;;;;;;;;;;;;;;;4982428;28;19917;-81
2023/08/14 03:38:25;;;;;;;;;;;;;;;;;;5003566;28;19950;-81
2023/08/14 03:40:50;;;;;;;;;;;;;;;;;;4984761;28;19953;-81
2023/08/14 03:43:15;;;;;;;;;;;;;;;;;;5005968;28;19917;-81
2023/08/14 03:45:44;;;;;;;;;;;;;;;;;;4985524;28;19924;-81
2023/08/14 03:48:09;;;;;;;;;;;;;;;;;;4985761;28;20396;-81
2023/08/14 03:50:35;;;;;;;;;;;;;;;;;;4979130;28;19924;-81
2023/08/14 03:53:00;;;;;;;;;;;;;;;;;;5015307;28;20327;-81
2023/08/14 03:55:43;;;;;;;;;;;;;;;;;;4980468;28;19917;-80
2023/08/14 03:58:08;;;;;;;;;;;;;;;;;;4999419;28;19917;-80
2023/08/14 04:00:34;;;;;;;;;;;;;;;;;;4997905;28;19932;-81
2023/08/14 04:02:59;;;;;;;;;;;;;;;;;;4990350;28;19921;-82
2023/08/14 04:05:24;;;;;;;;;;;;;;;;;;4977146;28;19986;-81
2023/08/14 04:07:50;;;;;;;;;;;;;;;;;;4990375;28;20058;-81
2023/08/14 04:10:15;;;;;;;;;;;;;;;;;;4977286;28;19914;-81
2023/08/14 04:12:40;;;;;;;;;;;;;;;;;;4984862;28;19930;-81
2023/08/14 04:15:13;;;;;;;;;;;;;;;;;;4986415;28;19917;-81
2023/08/14 04:17:38;;;;;;;;;;;;;;;;;;4985768;28;19920;-86
2023/08/14 04:20:04;;;;;;;;;;;;;;;;;;5000187;28;19921;-88
2023/08/14 04:22:29;;;;;;;;;;;;;;;;;;4985339;28;20005;-87
2023/08/14 04:24:54;;;;;;;;;;;;;;;;;;4992101;28;19913;-90
2023/08/14 04:27:20;;;;;;;;;;;;;;;;;;4982215;28;19912;-89
2023/08/14 04:29:45;;;;;;;;;;;;;;;;;;4984258;28;19967;-89
2023/08/14 04:32:11;;;;;;;;;;;;;;;;;;4987334;28;19953;-89
2023/08/14 04:34:38;;;;;;;;;;;;;;;;;;5005164;28;20435;-90
2023/08/14 04:37:03;;;;;;;;;;;;;;;;;;5000850;28;20407;-90
2023/08/14 04:39:29;;;;;;;;;;;;;;;;;;4996657;28;19953;-89
2023/08/14 04:41:54;;;;;;;;;;;;;;;;;;4987197;28;20289;-90
2023/08/14 04:44:19;;;;;;;;;;;;;;;;;;4994931;28;19913;-89
2023/08/14 04:46:44;;;;;;;;;;;;;;;;;;4980512;28;19917;-90
2023/08/14 04:49:10;;;;;;;;;;;;;;;;;;4987000;28;19913;-89
2023/08/14 04:51:38;;;;;;;;;;;;;;;;;;4967783;28;19913;-88
2023/08/14 04:54:38;;;;;;;;;;;;;;;;;;4965885;28;19948;-90
2023/08/14 04:57:06;;;;;;;;;;;;;;;;;;4987358;28;19923;-89
2023/08/14 04:59:33;;;;;;;;;;;;;;;;;;4958004;28;19932;-89
2023/08/14 05:01:59;;;;;;;;;;;;;;;;;;5004577;28;19962;-89
2023/08/14 05:04:36;;;;;;;;;;;;;;;;;;4966107;28;20327;-89
2023/08/14 05:07:02;;;;;;;;;;;;;;;;;;4964394;28;19913;-89
2023/08/14 05:09:27;;;;;;;;;;;;;;;;;;4988332;28;19920;-89
2023/08/14 05:11:52;;;;;;;;;;;;;;;;;;5003224;28;19917;-89
2023/08/14 05:14:20;;;;;;;;;;;;;;;;;;4980775;28;20008;-89
2023/08/14 05:16:46;;;;;;;;;;;;;;;;;;4985067;28;19921;-88
2023/08/14 05:19:14;;;;;;;;;;;;;;;;;;4986981;28;19950;-89
2023/08/14 05:21:39;;;;;;;;;;;;;;;;;;4987281;28;20421;-89
2023/08/14 05:24:07;;;;;;;;;;;;;;;;;;4969521;28;19917;-86
2023/08/14 05:26:35;;;;;;;;;;;;;;;;;;4968107;28;20365;-86
2023/08/14 05:29:01;;;;;;;;;;;;;;;;;;4983767;28;19963;-86
2023/08/14 05:31:26;;;;;;;;;;;;;;;;;;4953995;28;19952;-86
2023/08/14 05:33:51;;;;;;;;;;;;;;;;;;4988326;28;19928;-86
2023/08/14 05:36:37;;;;;;;;;;;;;;;;;;4954384;28;19937;-87
2023/08/14 05:42:01;;;;;;;;;;;;;;;;;;4998538;28;21667;-86
2023/08/14 05:44:27;;;;;;;;;;;;;;;;;;4988529;28;19916;-86
2023/08/14 05:46:52;;;;;;;;;;;;;;;;;;4971873;28;19968;-86
2023/08/14 05:49:17;;;;;;;;;;;;;;;;;;4990580;28;19917;-86
2023/08/14 05:51:44;;;;;;;;;;;;;;;;;;4998748;28;20000;-86
2023/08/14 05:54:09;;;;;;;;;;;;;;;;;;4987268;28;20292;-87
2023/08/14 05:56:34;;;;;;;;;;;;;;;;;;4975175;28;19916;-85
2023/08/14 05:59:00;;;;;;;;;;;;;;;;;;4975968;28;20000;-85
2023/08/14 06:01:26;;;;;;;;;;;;;;;;;;4982688;28;19916;-86
2023/08/14 06:03:51;;;;;;;;;;;;;;;;;;4982284;28;19925;-86
2023/08/14 06:06:16;;;;;;;;;;;;;;;;;;4987925;28;20373;-85
2023/08/14 06:08:42;;;;;;;;;;;;;;;;;;4983636;28;19917;-85
2023/08/14 06:11:07;;;;;;;;;;;;;;;;;;5001357;28;19918;-81
2023/08/14 06:13:32;;;;;;;;;;;;;;;;;;5001529;28;19927;-80
2023/08/14 06:15:58;;;;;;;;;;;;;;;;;;4981625;28;19964;-79
2023/08/14 06:18:23;;;;;;;;;;;;;;;;;;4987713;28;19923;-79
2023/08/14 06:20:49;;;;;;;;;;;;;;;;;;4987296;28;20291;-80
2023/08/14 06:23:18;;;;;;;;;;;;;;;;;;4986636;28;20340;-80
2023/08/14 06:25:43;;;;;;;;;;;;;;;;;;4983955;28;19941;-79
2023/08/14 06:28:08;;;;;;;;;;;;;;;;;;4988880;28;19989;-79
2023/08/14 06:30:34;;;;;;;;;;;;;;;;;;4985089;28;20012;-80
2023/08/14 06:33:00;;;;;;;;;;;;;;;;;;4984816;28;19956;-79
2023/08/14 06:35:25;;;;;;;;;;;;;;;;;;4968279;28;20003;-80
2023/08/14 06:37:51;;;;;;;;;;;;;;;;;;5001774;28;19920;-79
2023/08/14 06:40:16;;;;;;;;;;;;;;;;;;5003343;28;19917;-79
2023/08/14 06:42:41;;;;;;;;;;;;;;;;;;5002627;28;19979;-79
2023/08/14 06:45:07;;;;;;;;;;;;;;;;;;4988822;28;19917;-79
2023/08/14 06:47:32;;;;;;;;;;;;;;;;;;4983412;28;19924;-80
2023/08/14 06:49:57;;;;;;;;;;;;;;;;;;4983746;28;20394;-79
2023/08/14 06:52:23;;;;;;;;;;;;;;;;;;4985695;28;19917;-80
2023/08/14 06:54:48;;;;;;;;;;;;;;;;;;4981011;28;20067;-79
2023/08/14 06:57:13;;;;;;;;;;;;;;;;;;4983289;28;20269;-80
2023/08/14 06:59:39;;;;;;;;;;;;;;;;;;4977405;28;19925;-80
2023/08/14 07:02:04;;;;;;;;;;;;;;;;;;4987282;28;19958;-79
2023/08/14 07:04:29;;;;;;;;;;;;;;;;;;4983977;28;19913;-80
2023/08/14 07:06:54;;;;;;;;;;;;;;;;;;4981780;28;19913;-79
2023/08/14 07:09:21;;;;;;;;;;;;;;;;;;5003936;28;20342;-79
2023/08/14 07:11:46;;;;;;;;;;;;;;;;;;4992209;28;20623;-80
2023/08/14 07:14:11;;;;;;;;;;;;;;;;;;4982529;28;19926;-77
2023/08/14 07:16:36;;;;;;;;;;;;;;;;;;4986255;28;20508;-77
2023/08/14 07:19:02;;;;;;;;;;;;;;;;;;4984299;28;19917;-78
2023/08/14 07:21:27;;;;;;;;;;;;;;;;;;4990878;28;19971;-78
2023/08/14 07:23:52;;;;;;;;;;;;;;;;;;4990007;28;19972;-78
2023/08/14 07:26:18;;;;;;;;;;;;;;;;;;4985991;28;19917;-78
2023/08/14 07:28:43;;;;;;;;;;;;;;;;;;4989279;28;20332;-78
2023/08/14 07:31:08;;;;;;;;;;;;;;;;;;5003803;28;20339;-79
2023/08/14 07:33:34;;;;;;;;;;;;;;;;;;4985665;28;19925;-78
2023/08/14 07:35:59;;;;;;;;;;;;;;;;;;4987006;28;19913;-78
2023/08/14 07:38:27;;;;;;;;;;;;;;;;;;5007234;28;19921;-79
2023/08/14 07:40:53;;;;;;;;;;;;;;;;;;4981303;28;19924;-79
2023/08/14 07:43:18;;;;;;;;;;;;;;;;;;4981444;28;19917;-78
2023/08/14 07:45:43;;;;;;;;;;;;;;;;;;4988831;28;19983;-81
2023/08/14 07:48:09;;;;;;;;;;;;;;;;;;4986172;28;19940;-79
2023/08/14 07:50:34;;;;;;;;;;;;;;;;;;4985571;28;19918;-79
2023/08/14 07:52:59;;;;;;;;;;;;;;;;;;4986984;28;19922;-79
2023/08/14 07:55:25;;;;;;;;;;;;;;;;;;4976597;28;20270;-78
2023/08/14 07:57:50;;;;;;;;;;;;;;;;;;4986187;28;19975;-78
2023/08/14 08:00:16;;;;;;;;;;;;;;;;;;4988900;28;20912;-79
2023/08/14 08:02:41;;;;;;;;;;;;;;;;;;4998839;28;19928;-80
2023/08/14 08:05:07;;;;;;;;;;;;;;;;;;4985298;28;19917;-78
2023/08/14 08:07:32;;;;;;;;;;;;;;;;;;5003782;28;20280;-80
2023/08/14 08:09:57;;;;;;;;;;;;;;;;;;4993473;28;20364;-79
2023/08/14 08:12:22;;;;;;;;;;;;;;;;;;5004746;28;19983;-80
2023/08/14 08:14:48;;;;;;;;;;;;;;;;;;4977026;28;19956;-79
2023/08/14 08:17:13;;;;;;;;;;;;;;;;;;4987626;28;19913;-79
2023/08/14 08:19:38;;;;;;;;;;;;;;;;;;4985775;28;19927;-80
2023/08/14 08:22:04;;;;;;;;;;;;;;;;;;4987762;28;19920;-79
2023/08/14 08:24:29;;;;;;;;;;;;;;;;;;4987238;28;20004;-80
2023/08/14 08:26:54;;;;;;;;;;;;;;;;;;4978713;28;19933;-79
2023/08/14 08:29:19;;;;;;;;;;;;;;;;;;4977104;28;20045;-79
2023/08/14 08:31:45;;;;;;;;;;;;;;;;;;4992581;28;19940;-79
2023/08/14 08:34:11;;;;;;;;;;;;;;;;;;4980747;28;19963;-80
2023/08/14 08:36:37;;;;;;;;;;;;;;;;;;4979408;28;20369;-79
2023/08/14 08:39:02;;;;;;;;;;;;;;;;;;4989913;28;19920;-79
2023/08/14 08:41:31;;;;;;;;;;;;;;;;;;4975428;28;20345;-79
2023/08/14 08:44:00;;;;;;;;;;;;;;;;;;4984171;28;19935;-80
2023/08/14 08:46:26;;;;;;;;;;;;;;;;;;4974871;28;19917;-79
2023/08/14 08:48:51;;;;;;;;;;;;;;;;;;4976432;28;19913;-79
2023/08/14 08:51:17;;;;;;;;;;;;;;;;;;4969639;28;19947;-78
2023/08/14 08:53:42;;;;;;;;;;;;;;;;;;4991323;28;20024;-79
2023/08/14 08:56:07;;;;;;;;;;;;;;;;;;4988974;28;20411;-78
2023/08/14 08:58:33;;;;;;;;;;;;;;;;;;4988695;28;20296;-79
2023/08/14 09:00:59;;;;;;;;;;;;;;;;;;4989107;28;20360;-80
2023/08/14 09:03:24;;;;;;;;;;;;;;;;;;4988334;28;19923;-79
2023/08/14 09:05:51;;;;;;;;;;;;;;;;;;4988294;28;19917;-79
2023/08/14 09:08:16;;;;;;;;;;;;;;;;;;4983889;28;19951;-79
2023/08/14 09:10:41;;;;;;;;;;;;;;;;;;5001701;28;20370;-78
2023/08/14 09:13:07;;;;;;;;;;;;;;;;;;4985383;28;19917;-79
2023/08/14 09:15:32;;;;;;;;;;;;;;;;;;4972236;28;19917;-80
2023/08/14 09:17:57;;;;;;;;;;;;;;;;;;4987181;28;19925;-80
2023/08/14 09:20:25;;;;;;;;;;;;;;;;;;4983034;28;19913;-79
2023/08/14 09:22:55;;;;;;;;;;;;;;;;;;5000840;28;19936;-80
2023/08/14 09:25:20;;;;;;;;;;;;;;;;;;4982806;28;20397;-80
2023/08/14 09:27:45;;;;;;;;;;;;;;;;;;4990962;28;19939;-80
2023/08/14 09:30:12;;;;;;;;;;;;;;;;;;4986099;28;19936;-79
2023/08/14 09:32:37;;;;;;;;;;;;;;;;;;4988476;28;19996;-80
2023/08/14 09:35:03;;;;;;;;;;;;;;;;;;4988151;28;19924;-77
2023/08/14 09:37:28;;;;;;;;;;;;;;;;;;4969903;28;20463;-79
2023/08/14 09:40:14;;;;;;;;;;;;;;;;;;4976717;28;19950;-79
2023/08/14 09:42:39;;;;;;;;;;;;;;;;;;4998701;28;19921;-80
2023/08/14 09:45:05;;;;;;;;;;;;;;;;;;4984447;28;19913;-79
2023/08/14 09:47:30;;;;;;;;;;;;;;;;;;5002148;28;19917;-79
2023/08/14 09:49:56;;;;;;;;;;;;;;;;;;4988682;28;19924;-78
2023/08/14 09:52:21;;;;;;;;;;;;;;;;;;4974581;28;19992;-77
2023/08/14 09:54:48;;;;;;;;;;;;;;;;;;4987867;28;19928;-78
2023/08/14 09:57:13;;;;;;;;;;;;;;;;;;4984329;28;19920;-78
2023/08/14 09:59:40;;;;;;;;;;;;;;;;;;4995077;28;19929;-79
2023/08/14 10:02:05;;;;;;;;;;;;;;;;;;4965224;28;19921;-79
2023/08/14 10:04:31;;;;;;;;;;;;;;;;;;4966882;28;19909;-78
2023/08/14 10:06:56;;;;;;;;;;;;;;;;;;4962330;28;19995;-78
2023/08/14 10:09:22;;;;;;;;;;;;;;;;;;4986279;28;19923;-79
2023/08/14 10:11:47;;;;;;;;;;;;;;;;;;4956021;28;19917;-78
2023/08/14 10:14:13;;;;;;;;;;;;;;;;;;4955844;28;19925;-78
2023/08/14 10:16:38;;;;;;;;;;;;;;;;;;4980847;28;20481;-77
2023/08/14 10:19:04;;;;;;;;;;;;;;;;;;4969282;28;19928;-79
2023/08/14 10:21:32;;;;;;;;;;;;;;;;;;4964438;28;20401;-78
2023/08/14 10:24:04;;;;;;;;;;;;;;;;;;4967263;28;19957;-78
2023/08/14 10:26:31;;;;;;;;;;;;;;;;;;4980441;28;19960;-79
2023/08/14 10:28:57;;;;;;;;;;;;;;;;;;4965536;28;20420;-78
2023/08/14 10:31:23;;;;;;;;;;;;;;;;;;4974511;28;19945;-78
2023/08/14 10:33:48;;;;;;;;;;;;;;;;;;4959703;28;20392;-79
2023/08/14 10:36:20;;;;;;;;;;;;;;;;;;4976595;28;19968;-78
2023/08/14 10:38:50;;;;;;;;;;;;;;;;;;4956027;28;19921;-78
2023/08/14 10:41:16;;;;;;;;;;;;;;;;;;4959882;28;20395;-79
2023/08/14 10:43:42;;;;;;;;;;;;;;;;;;4976554;28;20330;-78
2023/08/14 10:46:10;;;;;;;;;;;;;;;;;;4964377;28;19960;-78
2023/08/14 10:48:36;;;;;;;;;;;;;;;;;;4973806;28;20365;-78
2023/08/14 10:51:01;;;;;;;;;;;;;;;;;;4961382;28;19957;-79
2023/08/14 10:53:29;;;;;;;;;;;;;;;;;;4973136;28;19922;-77
2023/08/14 10:55:54;;;;;;;;;;;;;;;;;;4960705;28;19917;-78
2023/08/14 10:58:31;;;;;;;;;;;;;;;;;;4963736;28;20333;-79
2023/08/14 11:00:57;;;;;;;;;;;;;;;;;;4997111;28;19925;-79
2023/08/14 11:03:23;;;;;;;;;;;;;;;;;;4985967;28;19928;-79
2023/08/14 11:05:48;;;;;;;;;;;;;;;;;;4986872;28;19952;-78
2023/08/14 11:08:14;;;;;;;;;;;;;;;;;;4981579;28;20348;-79
2023/08/14 11:10:40;;;;;;;;;;;;;;;;;;4976100;28;19929;-78
2023/08/14 11:13:11;;;;;;;;;;;;;;;;;;4990618;28;19921;-78
2023/08/14 11:15:37;;;;;;;;;;;;;;;;;;5006525;28;19975;-78
2023/08/14 11:18:05;;;;;;;;;;;;;;;;;;4990486;28;19967;-79
2023/08/14 11:20:31;;;;;;;;;;;;;;;;;;4983883;28;20012;-78
2023/08/14 11:22:56;;;;;;;;;;;;;;;;;;4976904;28;20408;-79
2023/08/14 11:25:22;;;;;;;;;;;;;;;;;;4986377;28;19917;-80
2023/08/14 11:27:54;;;;;;;;;;;;;;;;;;4987131;28;19913;-79
2023/08/14 11:30:20;;;;;;;;;;;;;;;;;;5004929;28;19913;-80
2023/08/14 11:32:46;;;;;;;;;;;;;;;;;;4985426;28;20007;-80
2023/08/14 11:35:11;;;;;;;;;;;;;;;;;;5006427;28;20008;-78
2023/08/14 11:37:36;;;;;;;;;;;;;;;;;;4975334;28;19952;-79
2023/08/14 11:40:05;;;;;;;;;;;;;;;;;;5002439;28;19917;-77
2023/08/14 11:42:33;;;;;;;;;;;;;;;;;;4987245;28;19933;-78
2023/08/14 11:45:05;;;;;;;;;;;;;;;;;;4986216;28;19953;-79
2023/08/14 11:47:37;;;;;;;;;;;;;;;;;;5000005;28;19921;-79
2023/08/14 11:50:03;;;;;;;;;;;;;;;;;;4986601;28;19917;-79
2023/08/14 11:52:28;;;;;;;;;;;;;;;;;;4988150;28;20892;-78
2023/08/14 11:54:56;;;;;;;;;;;;;;;;;;5006031;28;19917;-78
2023/08/14 11:57:22;;;;;;;;;;;;;;;;;;4986016;28;19920;-79
2023/08/14 11:59:47;;;;;;;;;;;;;;;;;;4990002;28;20400;-78
2023/08/14 12:02:13;;;;;;;;;;;;;;;;;;4990053;28;21077;-78
2023/08/14 12:04:40;;;;;;;;;;;;;;;;;;4984357;28;19920;-79
2023/08/14 12:07:08;;;;;;;;;;;;;;;;;;4998300;28;19917;-78
2023/08/14 12:09:33;;;;;;;;;;;;;;;;;;4983592;28;19913;-78
2023/08/14 12:11:59;;;;;;;;;;;;;;;;;;4989581;28;19917;-79
2023/08/14 12:14:24;;;;;;;;;;;;;;;;;;4980183;28;19917;-80
2023/08/14 12:16:49;;;;;;;;;;;;;;;;;;4979626;28;19916;-79
2023/08/14 12:19:14;;;;;;;;;;;;;;;;;;5007364;28;20136;-78
2023/08/14 12:21:42;;;;;;;;;;;;;;;;;;5002762;28;19991;-78
2023/08/14 12:24:08;;;;;;;;;;;;;;;;;;4987066;28;19917;-78
2023/08/14 12:26:44;;;;;;;;;;;;;;;;;;4985342;28;19921;-79
2023/08/14 12:29:09;;;;;;;;;;;;;;;;;;4991499;28;19970;-78
2023/08/14 12:31:34;;;;;;;;;;;;;;;;;;4979918;28;20335;-78
2023/08/14 12:33:59;;;;;;;;;;;;;;;;;;4989584;28;19917;-78
2023/08/14 12:36:25;;;;;;;;;;;;;;;;;;4984645;28;19917;-78
2023/08/14 12:38:50;;;;;;;;;;;;;;;;;;5007727;28;20004;-78
2023/08/14 12:41:15;;;;;;;;;;;;;;;;;;4986941;28;20668;-79
2023/08/14 12:43:40;;;;;;;;;;;;;;;;;;4988349;28;20003;-78
2023/08/14 12:46:09;;;;;;;;;;;;;;;;;;4990029;28;19917;-78
2023/08/14 12:48:34;;;;;;;;;;;;;;;;;;4990562;28;19957;-79
2023/08/14 12:50:59;;;;;;;;;;;;;;;;;;4988952;28;19956;-78
2023/08/14 12:53:25;;;;;;;;;;;;;;;;;;4986972;28;19940;-79
2023/08/14 12:55:54;;;;;;;;;;;;;;;;;;4989441;28;20411;-78
2023/08/14 12:58:19;;;;;;;;;;;;;;;;;;4990117;28;19925;-79
2023/08/14 13:00:44;;;;;;;;;;;;;;;;;;5004005;28;20311;-78
2023/08/14 13:03:10;;;;;;;;;;;;;;;;;;4974265;28;19921;-80
2023/08/14 13:05:35;;;;;;;;;;;;;;;;;;4983810;28;19917;-80
2023/08/14 13:08:01;;;;;;;;;;;;;;;;;;4979652;28;20422;-78
2023/08/14 13:10:27;;;;;;;;;;;;;;;;;;5000131;28;19925;-78
2023/08/14 13:12:56;;;;;;;;;;;;;;;;;;4985616;28;20269;-79
2023/08/14 13:15:24;;;;;;;;;;;;;;;;;;4984797;28;19925;-78
2023/08/14 13:17:49;;;;;;;;;;;;;;;;;;4988832;28;19936;-77
2023/08/14 13:20:14;;;;;;;;;;;;;;;;;;4983388;28;19917;-78
2023/08/14 13:22:39;;;;;;;;;;;;;;;;;;4985208;28;20000;-78
2023/08/14 13:25:05;;;;;;;;;;;;;;;;;;4984041;28;19924;-77
2023/08/14 13:27:30;;;;;;;;;;;;;;;;;;4990032;28;19923;-78
2023/08/14 13:29:55;;;;;;;;;;;;;;;;;;4984614;28;20357;-78
2023/08/14 13:32:21;;;;;;;;;;;;;;;;;;4989249;28;19921;-79
2023/08/14 13:34:46;;;;;;;;;;;;;;;;;;4985933;28;20264;-78
2023/08/14 13:37:11;;;;;;;;;;;;;;;;;;4989116;28;19916;-77
2023/08/14 13:39:36;;;;;;;;;;;;;;;;;;4982659;28;19917;-77
2023/08/14 13:42:05;;;;;;;;;;;;;;;;;;4977402;28;20012;-80
2023/08/14 13:44:31;;;;;;;;;;;;;;;;;;4984195;28;19944;-78
2023/08/14 13:46:57;;;;;;;;;;;;;;;;;;4986619;28;19913;-78
2023/08/14 13:49:22;;;;;;;;;;;;;;;;;;4997479;28;19935;-77
2023/08/14 13:51:47;;;;;;;;;;;;;;;;;;4978633;28;20361;-78
2023/08/14 13:54:12;;;;;;;;;;;;;;;;;;4986150;28;20008;-78
2023/08/14 13:56:38;;;;;;;;;;;;;;;;;;4995995;28;19917;-77
2023/08/14 13:59:06;;;;;;;;;;;;;;;;;;4974327;28;19925;-78
2023/08/14 14:01:31;;;;;;;;;;;;;;;;;;4984383;28;19920;-78
2023/08/14 14:03:57;;;;;;;;;;;;;;;;;;4994664;28;19927;-78
2023/08/14 14:06:22;;;;;;;;;;;;;;;;;;4979426;28;20239;-79
2023/08/14 14:08:47;;;;;;;;;;;;;;;;;;4978576;28;19925;-80
2023/08/14 14:11:12;;;;;;;;;;;;;;;;;;4996601;28;20032;-78
2023/08/14 14:13:38;;;;;;;;;;;;;;;;;;4984770;28;19921;-78
2023/08/14 14:16:06;;;;;;;;;;;;;;;;;;4987812;28;19928;-78
2023/08/14 14:18:31;;;;;;;;;;;;;;;;;;4985900;28;19917;-78
2023/08/14 14:20:57;;;;;;;;;;;;;;;;;;4983416;28;20483;-79
2023/08/14 14:23:22;;;;;;;;;;;;;;;;;;4984231;28;19917;-78
2023/08/14 14:25:47;;;;;;;;;;;;;;;;;;4987703;28;19918;-78
2023/08/14 14:28:14;;;;;;;;;;;;;;;;;;4985170;28;21017;-79
2023/08/14 14:30:39;;;;;;;;;;;;;;;;;;4984857;28;19932;-80
2023/08/14 14:33:05;;;;;;;;;;;;;;;;;;4985275;28;19913;-79
2023/08/14 14:35:31;;;;;;;;;;;;;;;;;;4983959;28;19917;-79
2023/08/14 14:37:56;;;;;;;;;;;;;;;;;;4995377;28;20285;-79
2023/08/14 14:40:21;;;;;;;;;;;;;;;;;;5001670;28;19924;-79
2023/08/14 14:42:47;;;;;;;;;;;;;;;;;;4982151;28;19924;-79
2023/08/14 14:45:12;;;;;;;;;;;;;;;;;;5003650;28;20013;-81
2023/08/14 14:47:37;;;;;;;;;;;;;;;;;;4978317;28;19925;-78
2023/08/14 14:50:03;;;;;;;;;;;;;;;;;;4968028;28;19928;-79
2023/08/14 14:52:28;;;;;;;;;;;;;;;;;;5000942;28;19963;-79
2023/08/14 14:54:53;;;;;;;;;;;;;;;;;;4986687;28;19913;-78
2023/08/14 14:57:19;;;;;;;;;;;;;;;;;;4984423;28;19974;-79
2023/08/14 14:59:45;;;;;;;;;;;;;;;;;;4988284;28;20690;-80
2023/08/14 15:02:10;;;;;;;;;;;;;;;;;;4987056;28;19988;-82
2023/08/14 15:04:36;;;;;;;;;;;;;;;;;;4987676;28;19955;-78
2023/08/14 15:07:01;;;;;;;;;;;;;;;;;;4980827;28;19917;-78
2023/08/14 15:09:26;;;;;;;;;;;;;;;;;;4982645;28;19913;-78
2023/08/14 15:11:51;;;;;;;;;;;;;;;;;;4998124;28;19949;-80
2023/08/14 15:14:17;;;;;;;;;;;;;;;;;;4985268;28;20292;-79
2023/08/14 15:16:42;;;;;;;;;;;;;;;;;;4983706;28;19975;-78
2023/08/14 15:19:07;;;;;;;;;;;;;;;;;;4969259;28;20459;-79
2023/08/14 15:21:32;;;;;;;;;;;;;;;;;;4980736;28;20735;-81
2023/08/14 15:23:58;;;;;;;;;;;;;;;;;;4987858;28;19917;-79
2023/08/14 15:26:23;;;;;;;;;;;;;;;;;;5010685;28;19971;-80
2023/08/14 15:28:48;;;;;;;;;;;;;;;;;;5004050;28;20416;-78
2023/08/14 15:31:14;;;;;;;;;;;;;;;;;;4983245;28;19999;-79
2023/08/14 15:33:40;;;;;;;;;;;;;;;;;;5004630;28;19920;-79
2023/08/14 15:36:05;;;;;;;;;;;;;;;;;;4987709;28;19917;-78
2023/08/14 15:38:33;;;;;;;;;;;;;;;;;;4992125;28;19944;-79
2023/08/14 15:40:58;;;;;;;;;;;;;;;;;;5014847;28;19920;-80
2023/08/14 15:43:24;;;;;;;;;;;;;;;;;;4986712;28;20067;-78
2023/08/14 15:45:58;;;;;;;;;;;;;;;;;;4986611;28;19917;-78
2023/08/14 15:48:24;;;;;;;;;;;;;;;;;;4986127;28;19996;-79
2023/08/14 15:50:49;;;;;;;;;;;;;;;;;;4984500;28;19964;-79
2023/08/14 15:53:15;;;;;;;;;;;;;;;;;;4989183;28;20399;-78
2023/08/14 15:55:43;;;;;;;;;;;;;;;;;;4982699;28;19917;-79
2023/08/14 15:58:08;;;;;;;;;;;;;;;;;;4990291;28;20312;-79
2023/08/14 16:00:34;;;;;;;;;;;;;;;;;;4988894;28;19932;-79
2023/08/14 16:02:59;;;;;;;;;;;;;;;;;;4998559;28;19953;-79
2023/08/14 16:05:24;;;;;;;;;;;;;;;;;;4985974;28;19917;-79
2023/08/14 16:07:49;;;;;;;;;;;;;;;;;;5004867;28;19947;-78
2023/08/14 16:10:15;;;;;;;;;;;;;;;;;;4989248;28;20052;-78
2023/08/14 16:12:40;;;;;;;;;;;;;;;;;;4981137;28;19916;-79
2023/08/14 16:15:06;;;;;;;;;;;;;;;;;;4985523;28;19924;-78
2023/08/14 16:17:31;;;;;;;;;;;;;;;;;;5002852;28;20364;-79
2023/08/14 16:19:56;;;;;;;;;;;;;;;;;;5006635;28;20008;-78
2023/08/14 16:22:22;;;;;;;;;;;;;;;;;;4978805;28;19922;-80
2023/08/14 16:24:47;;;;;;;;;;;;;;;;;;4978763;28;20295;-78
2023/08/14 16:27:18;;;;;;;;;;;;;;;;;;4967840;28;20396;-79
2023/08/14 16:29:43;;;;;;;;;;;;;;;;;;4980862;28;19928;-78
2023/08/14 16:32:09;;;;;;;;;;;;;;;;;;5005343;28;20387;-78
2023/08/14 16:34:34;;;;;;;;;;;;;;;;;;4987267;28;19917;-78
2023/08/14 16:36:59;;;;;;;;;;;;;;;;;;4986714;28;19917;-78
2023/08/14 16:39:25;;;;;;;;;;;;;;;;;;4979625;28;19923;-78
2023/08/14 16:41:50;;;;;;;;;;;;;;;;;;4982569;28;19925;-79